sensor_id;sensor_type;location;lat;lon;timestamp;temperature;humidity
3281;DHT22;1652;51.318;6.202;2023-03-01T00:01:12;0.00;99.90
3281;DHT22;1652;51.318;6.202;2023-03-01T00:03:40;0.00;99.90
3281;DHT22;1652;51.318;6.202;2023-03-01T00:06:07;-0.10;99.90
3281;DHT22;1652;51.318;6.202;2023-03-01T00:08:34;-0.10;99.90
3281;DHT22;1652;51.318;6.202;2023-03-01T00:11:08;-0.10;99.90
3281;DHT22;1652;51.318;6.202;2023-03-01T00:13:35;-0.10;99.90
3281;DHT22;1652;51.318;6.202;2023-03-01T00:16:04;0.00;99.90
3281;DHT22;1652;51.318;6.202;2023-03-01T00:18:32;-0.10;99.90
3281;DHT22;1652;51.318;6.202;2023-03-01T00:20:59;-0.20;99.90
3281;DHT22;1652;51.318;6.202;2023-03-01T00:23:26;-0.20;99.90
3281;DHT22;1652;51.318;6.202;2023-03-01T00:25:53;-0.20;99.90
3281;DHT22;1652;51.318;6.202;2023-03-01T00:28:20;-0.10;99.90
3281;DHT22;1652;51.318;6.202;2023-03-01T00:30:47;-0.20;99.90
3281;DHT22;1652;51.318;6.202;2023-03-01T00:33:14;-0.20;99.90
3281;DHT22;1652;51.318;6.202;2023-03-01T00:35:41;-0.10;99.90
3281;DHT22;1652;51.318;6.202;2023-03-01T00:38:08;-0.20;99.90
3281;DHT22;1652;51.318;6.202;2023-03-01T00:40:36;-0.10;99.90
3281;DHT22;1652;51.318;6.202;2023-03-01T00:43:03;-0.10;99.90
3281;DHT22;1652;51.318;6.202;2023-03-01T00:45:30;-0.10;99.90
3281;DHT22;1652;51.318;6.202;2023-03-01T00:48:00;-0.10;99.90
3281;DHT22;1652;51.318;6.202;2023-03-01T00:50:26;0.00;99.90
3281;DHT22;1652;51.318;6.202;2023-03-01T00:52:54;-0.10;99.90
3281;DHT22;1652;51.318;6.202;2023-03-01T00:55:22;-0.20;99.90
3281;DHT22;1652;51.318;6.202;2023-03-01T00:57:49;-0.20;99.90
3281;DHT22;1652;51.318;6.202;2023-03-01T01:00:16;-0.20;99.90
3281;DHT22;1652;51.318;6.202;2023-03-01T01:02:44;-0.20;99.90
3281;DHT22;1652;51.318;6.202;2023-03-01T01:05:11;-0.20;99.90
3281;DHT22;1652;51.318;6.202;2023-03-01T01:07:38;-0.20;99.90
3281;DHT22;1652;51.318;6.202;2023-03-01T01:10:06;-0.30;99.90
3281;DHT22;1652;51.318;6.202;2023-03-01T01:12:33;-0.30;99.90
3281;DHT22;1652;51.318;6.202;2023-03-01T01:15:00;-0.40;99.90
3281;DHT22;1652;51.318;6.202;2023-03-01T01:17:26;-0.40;99.90
3281;DHT22;1652;51.318;6.202;2023-03-01T01:19:53;-0.40;99.90
3281;DHT22;1652;51.318;6.202;2023-03-01T01:22:20;-0.50;99.90
3281;DHT22;1652;51.318;6.202;2023-03-01T01:24:47;-0.50;99.90
3281;DHT22;1652;51.318;6.202;2023-03-01T01:27:13;-0.50;99.90
3281;DHT22;1652;51.318;6.202;2023-03-01T01:29:40;-0.50;99.90
3281;DHT22;1652;51.318;6.202;2023-03-01T01:32:08;-0.50;99.90
3281;DHT22;1652;51.318;6.202;2023-03-01T01:34:35;-0.50;99.90
3281;DHT22;1652;51.318;6.202;2023-03-01T01:37:02;-0.40;99.90
3281;DHT22;1652;51.318;6.202;2023-03-01T01:39:29;-0.50;99.90
3281;DHT22;1652;51.318;6.202;2023-03-01T01:41:56;-0.60;99.90
3281;DHT22;1652;51.318;6.202;2023-03-01T01:44:27;-0.60;99.90
3281;DHT22;1652;51.318;6.202;2023-03-01T01:47:06;-0.70;99.90
3281;DHT22;1652;51.318;6.202;2023-03-01T01:49:42;-0.70;99.90
3281;DHT22;1652;51.318;6.202;2023-03-01T01:52:14;-0.70;99.90
3281;DHT22;1652;51.318;6.202;2023-03-01T01:54:48;-0.70;99.90
3281;DHT22;1652;51.318;6.202;2023-03-01T01:57:19;-0.70;99.90
3281;DHT22;1652;51.318;6.202;2023-03-01T01:59:51;-0.70;99.90
3281;DHT22;1652;51.318;6.202;2023-03-01T02:02:19;-0.80;99.90
3281;DHT22;1652;51.318;6.202;2023-03-01T02:04:48;-0.90;99.90
3281;DHT22;1652;51.318;6.202;2023-03-01T02:07:25;-0.90;99.90
3281;DHT22;1652;51.318;6.202;2023-03-01T02:09:53;-1.00;99.90
3281;DHT22;1652;51.318;6.202;2023-03-01T02:12:23;-1.10;99.90
3281;DHT22;1652;51.318;6.202;2023-03-01T02:14:49;-1.10;99.90
3281;DHT22;1652;51.318;6.202;2023-03-01T02:17:17;-1.00;99.90
3281;DHT22;1652;51.318;6.202;2023-03-01T02:22:43;-1.00;99.90
3281;DHT22;1652;51.318;6.202;2023-03-01T02:25:27;-0.90;99.90
3281;DHT22;1652;51.318;6.202;2023-03-01T02:30:29;-1.00;99.90
3281;DHT22;1652;51.318;6.202;2023-03-01T02:32:58;-1.00;99.90
3281;DHT22;1652;51.318;6.202;2023-03-01T02:35:32;-0.90;99.90
3281;DHT22;1652;51.318;6.202;2023-03-01T02:38:01;-1.00;99.90
3281;DHT22;1652;51.318;6.202;2023-03-01T02:40:30;-1.10;99.90
3281;DHT22;1652;51.318;6.202;2023-03-01T02:42:58;-1.10;99.90
3281;DHT22;1652;51.318;6.202;2023-03-01T02:45:26;-1.10;99.90
3281;DHT22;1652;51.318;6.202;2023-03-01T02:47:54;-1.10;99.90
3281;DHT22;1652;51.318;6.202;2023-03-01T02:56:01;-1.20;99.90
3281;DHT22;1652;51.318;6.202;2023-03-01T02:58:28;-1.30;99.90
3281;DHT22;1652;51.318;6.202;2023-03-01T03:00:55;-1.30;99.90
3281;DHT22;1652;51.318;6.202;2023-03-01T03:03:23;-1.30;99.90
3281;DHT22;1652;51.318;6.202;2023-03-01T03:05:49;-1.30;99.90
3281;DHT22;1652;51.318;6.202;2023-03-01T03:08:16;-1.30;99.90
3281;DHT22;1652;51.318;6.202;2023-03-01T03:10:51;-1.40;99.90
3281;DHT22;1652;51.318;6.202;2023-03-01T03:13:17;-1.50;99.90
3281;DHT22;1652;51.318;6.202;2023-03-01T03:15:45;-1.40;99.90
3281;DHT22;1652;51.318;6.202;2023-03-01T03:18:15;-1.30;99.90
3281;DHT22;1652;51.318;6.202;2023-03-01T03:20:43;-1.40;99.90
3281;DHT22;1652;51.318;6.202;2023-03-01T03:23:10;-1.40;99.90
3281;DHT22;1652;51.318;6.202;2023-03-01T03:25:37;-1.40;99.90
3281;DHT22;1652;51.318;6.202;2023-03-01T03:28:06;-1.40;99.90
3281;DHT22;1652;51.318;6.202;2023-03-01T03:30:39;-1.40;99.90
3281;DHT22;1652;51.318;6.202;2023-03-01T03:33:06;-1.50;99.90
3281;DHT22;1652;51.318;6.202;2023-03-01T03:35:54;-1.50;99.90
3281;DHT22;1652;51.318;6.202;2023-03-01T03:38:20;-1.60;99.90
3281;DHT22;1652;51.318;6.202;2023-03-01T03:40:49;-1.70;99.90
3281;DHT22;1652;51.318;6.202;2023-03-01T03:43:19;-1.70;99.90
3281;DHT22;1652;51.318;6.202;2023-03-01T03:45:48;-1.70;99.90
3281;DHT22;1652;51.318;6.202;2023-03-01T03:48:16;-1.60;99.90
3281;DHT22;1652;51.318;6.202;2023-03-01T03:50:48;-1.60;99.90
3281;DHT22;1652;51.318;6.202;2023-03-01T03:53:15;-1.70;99.90
3281;DHT22;1652;51.318;6.202;2023-03-01T03:55:42;-1.70;99.90
3281;DHT22;1652;51.318;6.202;2023-03-01T03:58:11;-1.60;99.90
3281;DHT22;1652;51.318;6.202;2023-03-01T04:00:43;-1.70;99.90
3281;DHT22;1652;51.318;6.202;2023-03-01T04:03:11;-1.60;99.90
3281;DHT22;1652;51.318;6.202;2023-03-01T04:05:39;-1.70;99.90
3281;DHT22;1652;51.318;6.202;2023-03-01T04:08:07;-1.80;99.90
3281;DHT22;1652;51.318;6.202;2023-03-01T04:10:41;-1.90;99.90
3281;DHT22;1652;51.318;6.202;2023-03-01T04:13:12;-1.90;99.90
3281;DHT22;1652;51.318;6.202;2023-03-01T04:15:39;-1.80;99.90
3281;DHT22;1652;51.318;6.202;2023-03-01T04:18:07;-1.70;99.90
3281;DHT22;1652;51.318;6.202;2023-03-01T04:20:35;-1.70;99.90
3281;DHT22;1652;51.318;6.202;2023-03-01T04:23:07;-1.70;99.90
3281;DHT22;1652;51.318;6.202;2023-03-01T04:25:41;-1.70;99.90
3281;DHT22;1652;51.318;6.202;2023-03-01T04:28:09;-1.70;99.90
3281;DHT22;1652;51.318;6.202;2023-03-01T04:30:37;-1.70;99.90
3281;DHT22;1652;51.318;6.202;2023-03-01T04:33:08;-1.70;99.90
3281;DHT22;1652;51.318;6.202;2023-03-01T04:35:36;-1.70;99.90
3281;DHT22;1652;51.318;6.202;2023-03-01T04:38:04;-1.70;99.90
3281;DHT22;1652;51.318;6.202;2023-03-01T04:40:32;-1.70;99.90
3281;DHT22;1652;51.318;6.202;2023-03-01T04:42:59;-1.80;99.90
3281;DHT22;1652;51.318;6.202;2023-03-01T04:45:26;-1.80;99.90
3281;DHT22;1652;51.318;6.202;2023-03-01T04:47:54;-1.90;99.90
3281;DHT22;1652;51.318;6.202;2023-03-01T04:50:21;-1.80;99.90
3281;DHT22;1652;51.318;6.202;2023-03-01T04:52:50;-1.80;99.90
3281;DHT22;1652;51.318;6.202;2023-03-01T04:55:18;-1.80;99.90
3281;DHT22;1652;51.318;6.202;2023-03-01T04:57:45;-1.80;99.90
3281;DHT22;1652;51.318;6.202;2023-03-01T05:00:13;-1.80;99.90
3281;DHT22;1652;51.318;6.202;2023-03-01T05:02:56;-1.80;99.90
3281;DHT22;1652;51.318;6.202;2023-03-01T05:05:37;-1.80;99.90
3281;DHT22;1652;51.318;6.202;2023-03-01T05:08:06;-1.80;99.90
3281;DHT22;1652;51.318;6.202;2023-03-01T05:10:35;-1.80;99.90
3281;DHT22;1652;51.318;6.202;2023-03-01T05:13:03;-1.70;99.90
3281;DHT22;1652;51.318;6.202;2023-03-01T05:15:31;-1.80;99.90
3281;DHT22;1652;51.318;6.202;2023-03-01T05:17:59;-1.70;99.90
3281;DHT22;1652;51.318;6.202;2023-03-01T05:20:28;-1.70;99.90
3281;DHT22;1652;51.318;6.202;2023-03-01T05:22:57;-1.80;99.90
3281;DHT22;1652;51.318;6.202;2023-03-01T05:25:25;-1.90;99.90
3281;DHT22;1652;51.318;6.202;2023-03-01T05:27:52;-1.90;99.90
3281;DHT22;1652;51.318;6.202;2023-03-01T05:30:19;-1.90;99.90
3281;DHT22;1652;51.318;6.202;2023-03-01T05:32:49;-1.90;99.90
3281;DHT22;1652;51.318;6.202;2023-03-01T05:35:17;-2.00;99.90
3281;DHT22;1652;51.318;6.202;2023-03-01T05:37:47;-2.00;99.90
3281;DHT22;1652;51.318;6.202;2023-03-01T05:40:17;-2.00;99.90
3281;DHT22;1652;51.318;6.202;2023-03-01T05:42:46;-2.00;99.90
3281;DHT22;1652;51.318;6.202;2023-03-01T05:45:14;-2.00;99.90
3281;DHT22;1652;51.318;6.202;2023-03-01T05:47:42;-1.90;99.90
3281;DHT22;1652;51.318;6.202;2023-03-01T05:50:15;-2.00;99.90
3281;DHT22;1652;51.318;6.202;2023-03-01T05:52:50;-2.10;99.90
3281;DHT22;1652;51.318;6.202;2023-03-01T05:55:19;-2.10;99.90
3281;DHT22;1652;51.318;6.202;2023-03-01T05:57:46;-2.00;99.90
3281;DHT22;1652;51.318;6.202;2023-03-01T06:00:14;-2.00;99.90
3281;DHT22;1652;51.318;6.202;2023-03-01T06:02:42;-2.00;99.90
3281;DHT22;1652;51.318;6.202;2023-03-01T06:05:10;-1.80;99.90
3281;DHT22;1652;51.318;6.202;2023-03-01T06:07:37;-1.80;99.90
3281;DHT22;1652;51.318;6.202;2023-03-01T06:10:05;-1.80;99.90
3281;DHT22;1652;51.318;6.202;2023-03-01T06:12:33;-1.80;99.90
3281;DHT22;1652;51.318;6.202;2023-03-01T06:15:00;-1.80;99.90
3281;DHT22;1652;51.318;6.202;2023-03-01T06:17:32;-1.70;99.90
3281;DHT22;1652;51.318;6.202;2023-03-01T06:19:59;-1.80;99.90
3281;DHT22;1652;51.318;6.202;2023-03-01T06:22:27;-1.80;99.90
3281;DHT22;1652;51.318;6.202;2023-03-01T06:24:53;-1.80;99.90
3281;DHT22;1652;51.318;6.202;2023-03-01T06:27:20;-1.80;99.90
3281;DHT22;1652;51.318;6.202;2023-03-01T06:29:47;-1.90;99.90
3281;DHT22;1652;51.318;6.202;2023-03-01T06:32:15;-1.80;99.90
3281;DHT22;1652;51.318;6.202;2023-03-01T06:34:42;-1.90;99.90
3281;DHT22;1652;51.318;6.202;2023-03-01T06:37:08;-1.80;99.90
3281;DHT22;1652;51.318;6.202;2023-03-01T06:39:35;-1.70;99.90
3281;DHT22;1652;51.318;6.202;2023-03-01T06:42:05;-1.80;99.90
3281;DHT22;1652;51.318;6.202;2023-03-01T06:44:31;-1.80;99.90
3281;DHT22;1652;51.318;6.202;2023-03-01T06:46:58;-1.80;99.90
3281;DHT22;1652;51.318;6.202;2023-03-01T06:49:25;-1.80;99.90
3281;DHT22;1652;51.318;6.202;2023-03-01T06:51:52;-1.60;99.90
3281;DHT22;1652;51.318;6.202;2023-03-01T06:54:19;-1.40;99.90
3281;DHT22;1652;51.318;6.202;2023-03-01T06:56:49;-1.00;99.90
3281;DHT22;1652;51.318;6.202;2023-03-01T06:59:16;-0.20;99.90
3281;DHT22;1652;51.318;6.202;2023-03-01T07:01:43;0.40;99.90
3281;DHT22;1652;51.318;6.202;2023-03-01T07:04:12;0.80;99.90
3281;DHT22;1652;51.318;6.202;2023-03-01T07:06:39;1.30;99.90
3281;DHT22;1652;51.318;6.202;2023-03-01T07:09:06;1.70;99.90
3281;DHT22;1652;51.318;6.202;2023-03-01T07:11:33;2.00;99.90
3281;DHT22;1652;51.318;6.202;2023-03-01T07:13:59;2.10;99.90
3281;DHT22;1652;51.318;6.202;2023-03-01T07:16:26;2.20;99.90
3281;DHT22;1652;51.318;6.202;2023-03-01T07:18:54;2.70;99.90
3281;DHT22;1652;51.318;6.202;2023-03-01T07:21:20;2.90;99.90
3281;DHT22;1652;51.318;6.202;2023-03-01T07:23:48;3.20;99.90
3281;DHT22;1652;51.318;6.202;2023-03-01T07:26:15;3.30;99.90
3281;DHT22;1652;51.318;6.202;2023-03-01T07:28:42;3.50;99.90
3281;DHT22;1652;51.318;6.202;2023-03-01T07:31:09;3.60;99.90
3281;DHT22;1652;51.318;6.202;2023-03-01T07:33:35;3.50;99.90
3281;DHT22;1652;51.318;6.202;2023-03-01T07:36:03;3.60;99.90
3281;DHT22;1652;51.318;6.202;2023-03-01T07:38:30;3.70;99.90
3281;DHT22;1652;51.318;6.202;2023-03-01T07:41:01;3.50;99.90
3281;DHT22;1652;51.318;6.202;2023-03-01T07:43:30;3.30;99.90
3281;DHT22;1652;51.318;6.202;2023-03-01T07:46:00;3.20;99.90
3281;DHT22;1652;51.318;6.202;2023-03-01T07:48:28;3.40;99.90
3281;DHT22;1652;51.318;6.202;2023-03-01T07:51:03;3.50;99.90
3281;DHT22;1652;51.318;6.202;2023-03-01T07:53:30;3.60;99.90
3281;DHT22;1652;51.318;6.202;2023-03-01T07:56:08;3.60;99.90
3281;DHT22;1652;51.318;6.202;2023-03-01T07:58:36;3.90;99.90
3281;DHT22;1652;51.318;6.202;2023-03-01T08:01:05;3.70;99.90
3281;DHT22;1652;51.318;6.202;2023-03-01T08:03:32;3.50;99.90
3281;DHT22;1652;51.318;6.202;2023-03-01T08:06:00;3.30;99.90
3281;DHT22;1652;51.318;6.202;2023-03-01T08:08:28;3.20;99.90
3281;DHT22;1652;51.318;6.202;2023-03-01T08:11:00;3.50;99.90
3281;DHT22;1652;51.318;6.202;2023-03-01T08:13:28;3.60;99.90
3281;DHT22;1652;51.318;6.202;2023-03-01T08:16:00;3.70;99.90
3281;DHT22;1652;51.318;6.202;2023-03-01T08:18:26;3.80;99.90
3281;DHT22;1652;51.318;6.202;2023-03-01T08:20:53;4.00;99.90
3281;DHT22;1652;51.318;6.202;2023-03-01T08:23:20;4.00;99.90
3281;DHT22;1652;51.318;6.202;2023-03-01T08:25:47;3.90;99.90
3281;DHT22;1652;51.318;6.202;2023-03-01T08:28:14;4.20;99.90
3281;DHT22;1652;51.318;6.202;2023-03-01T08:30:40;4.50;99.90
3281;DHT22;1652;51.318;6.202;2023-03-01T08:33:07;4.50;99.90
3281;DHT22;1652;51.318;6.202;2023-03-01T08:35:34;4.40;99.90
3281;DHT22;1652;51.318;6.202;2023-03-01T08:38:03;4.40;99.90
3281;DHT22;1652;51.318;6.202;2023-03-01T08:40:30;4.30;99.90
3281;DHT22;1652;51.318;6.202;2023-03-01T08:42:58;4.20;99.90
3281;DHT22;1652;51.318;6.202;2023-03-01T08:45:24;4.00;99.90
3281;DHT22;1652;51.318;6.202;2023-03-01T08:47:54;4.00;99.90
3281;DHT22;1652;51.318;6.202;2023-03-01T08:50:21;4.50;99.90
3281;DHT22;1652;51.318;6.202;2023-03-01T08:52:49;4.10;99.90
3281;DHT22;1652;51.318;6.202;2023-03-01T08:55:16;3.50;99.90
3281;DHT22;1652;51.318;6.202;2023-03-01T08:57:43;3.20;99.90
3281;DHT22;1652;51.318;6.202;2023-03-01T09:00:10;2.70;99.90
3281;DHT22;1652;51.318;6.202;2023-03-01T09:02:37;2.50;99.90
3281;DHT22;1652;51.318;6.202;2023-03-01T09:05:05;2.30;99.90
3281;DHT22;1652;51.318;6.202;2023-03-01T09:07:32;2.20;99.90
3281;DHT22;1652;51.318;6.202;2023-03-01T09:09:59;2.20;99.90
3281;DHT22;1652;51.318;6.202;2023-03-01T09:12:25;2.10;99.90
3281;DHT22;1652;51.318;6.202;2023-03-01T09:14:52;2.10;99.90
3281;DHT22;1652;51.318;6.202;2023-03-01T09:17:19;2.10;99.90
3281;DHT22;1652;51.318;6.202;2023-03-01T09:19:48;2.20;99.90
3281;DHT22;1652;51.318;6.202;2023-03-01T09:22:15;2.20;99.90
3281;DHT22;1652;51.318;6.202;2023-03-01T09:24:42;2.30;99.90
3281;DHT22;1652;51.318;6.202;2023-03-01T09:27:09;2.30;99.90
3281;DHT22;1652;51.318;6.202;2023-03-01T09:29:37;2.40;99.90
3281;DHT22;1652;51.318;6.202;2023-03-01T09:32:04;2.40;99.90
3281;DHT22;1652;51.318;6.202;2023-03-01T09:34:31;2.50;99.90
3281;DHT22;1652;51.318;6.202;2023-03-01T09:36:58;2.60;99.90
3281;DHT22;1652;51.318;6.202;2023-03-01T09:39:25;2.60;99.90
3281;DHT22;1652;51.318;6.202;2023-03-01T09:42:01;2.50;99.90
3281;DHT22;1652;51.318;6.202;2023-03-01T09:44:30;2.60;99.90
3281;DHT22;1652;51.318;6.202;2023-03-01T09:47:00;2.60;99.90
3281;DHT22;1652;51.318;6.202;2023-03-01T09:50:20;2.60;99.90
3281;DHT22;1652;51.318;6.202;2023-03-01T09:53:21;2.70;99.90
3281;DHT22;1652;51.318;6.202;2023-03-01T09:59:18;2.80;99.90
3281;DHT22;1652;51.318;6.202;2023-03-01T10:07:17;3.00;99.90
3281;DHT22;1652;51.318;6.202;2023-03-01T10:09:48;3.00;99.90
3281;DHT22;1652;51.318;6.202;2023-03-01T10:12:18;3.10;99.90
3281;DHT22;1652;51.318;6.202;2023-03-01T10:15:04;3.10;99.90
3281;DHT22;1652;51.318;6.202;2023-03-01T10:20:25;3.40;99.90
3281;DHT22;1652;51.318;6.202;2023-03-01T10:22:53;3.40;99.90
3281;DHT22;1652;51.318;6.202;2023-03-01T10:29:11;3.60;99.90
3281;DHT22;1652;51.318;6.202;2023-03-01T10:31:47;3.60;99.90
3281;DHT22;1652;51.318;6.202;2023-03-01T10:34:21;3.60;99.90
3281;DHT22;1652;51.318;6.202;2023-03-01T10:36:51;3.60;99.90
3281;DHT22;1652;51.318;6.202;2023-03-01T10:39:21;3.60;99.90
3281;DHT22;1652;51.318;6.202;2023-03-01T10:42:05;3.60;99.90
3281;DHT22;1652;51.318;6.202;2023-03-01T10:44:47;3.70;99.90
3281;DHT22;1652;51.318;6.202;2023-03-01T10:47:20;3.80;99.90
3281;DHT22;1652;51.318;6.202;2023-03-01T10:50:17;3.80;99.90
3281;DHT22;1652;51.318;6.202;2023-03-01T10:52:59;3.90;99.90
3281;DHT22;1652;51.318;6.202;2023-03-01T10:55:33;3.90;99.90
3281;DHT22;1652;51.318;6.202;2023-03-01T10:58:16;3.90;99.90
3281;DHT22;1652;51.318;6.202;2023-03-01T11:01:05;3.90;99.90
3281;DHT22;1652;51.318;6.202;2023-03-01T11:03:35;3.90;99.90
3281;DHT22;1652;51.318;6.202;2023-03-01T11:08:40;4.00;99.90
3281;DHT22;1652;51.318;6.202;2023-03-01T11:11:32;4.00;99.90
3281;DHT22;1652;51.318;6.202;2023-03-01T11:14:04;4.10;99.90
3281;DHT22;1652;51.318;6.202;2023-03-01T11:20:00;4.20;99.90
3281;DHT22;1652;51.318;6.202;2023-03-01T11:22:28;4.20;99.90
3281;DHT22;1652;51.318;6.202;2023-03-01T11:24:57;4.20;99.90
3281;DHT22;1652;51.318;6.202;2023-03-01T11:27:43;4.10;99.90
3281;DHT22;1652;51.318;6.202;2023-03-01T11:33:08;4.20;99.90
3281;DHT22;1652;51.318;6.202;2023-03-01T11:35:42;4.30;99.90
3281;DHT22;1652;51.318;6.202;2023-03-01T11:38:23;4.40;99.90
3281;DHT22;1652;51.318;6.202;2023-03-01T11:40:58;4.50;99.90
3281;DHT22;1652;51.318;6.202;2023-03-01T11:52:03;4.60;99.90
3281;DHT22;1652;51.318;6.202;2023-03-01T11:54:47;4.60;99.90
3281;DHT22;1652;51.318;6.202;2023-03-01T11:57:30;4.60;99.90
3281;DHT22;1652;51.318;6.202;2023-03-01T12:00:18;4.50;99.90
3281;DHT22;1652;51.318;6.202;2023-03-01T12:03:17;4.60;99.90
3281;DHT22;1652;51.318;6.202;2023-03-01T12:17:21;5.00;99.90
3281;DHT22;1652;51.318;6.202;2023-03-01T12:25:25;5.20;99.90
3281;DHT22;1652;51.318;6.202;2023-03-01T12:33:23;5.20;99.90
3281;DHT22;1652;51.318;6.202;2023-03-01T12:42:23;5.50;99.90
3281;DHT22;1652;51.318;6.202;2023-03-01T12:45:00;5.50;99.90
3281;DHT22;1652;51.318;6.202;2023-03-01T12:47:58;5.50;99.90
3281;DHT22;1652;51.318;6.202;2023-03-01T12:50:47;5.60;99.90
3281;DHT22;1652;51.318;6.202;2023-03-01T12:53:30;5.60;99.90
3281;DHT22;1652;51.318;6.202;2023-03-01T12:56:10;5.50;99.90
3281;DHT22;1652;51.318;6.202;2023-03-01T12:58:56;5.50;99.90
3281;DHT22;1652;51.318;6.202;2023-03-01T13:01:33;5.50;99.90
3281;DHT22;1652;51.318;6.202;2023-03-01T13:04:18;5.60;99.90
3281;DHT22;1652;51.318;6.202;2023-03-01T13:17:53;5.80;99.90
3281;DHT22;1652;51.318;6.202;2023-03-01T13:20:26;5.80;99.90
3281;DHT22;1652;51.318;6.202;2023-03-01T13:23:10;5.80;99.90
3281;DHT22;1652;51.318;6.202;2023-03-01T13:28:47;5.80;99.90
3281;DHT22;1652;51.318;6.202;2023-03-01T13:33:51;5.70;99.90
3281;DHT22;1652;51.318;6.202;2023-03-01T13:46:59;5.80;99.90
3281;DHT22;1652;51.318;6.202;2023-03-01T13:49:43;5.80;99.90
3281;DHT22;1652;51.318;6.202;2023-03-01T13:52:40;5.90;99.90
3281;DHT22;1652;51.318;6.202;2023-03-01T13:57:45;6.10;99.90
3281;DHT22;1652;51.318;6.202;2023-03-01T14:00:37;6.00;99.90
3281;DHT22;1652;51.318;6.202;2023-03-01T14:03:11;6.00;99.90
3281;DHT22;1652;51.318;6.202;2023-03-01T14:05:40;6.00;99.90
3281;DHT22;1652;51.318;6.202;2023-03-01T14:08:24;6.00;99.90
3281;DHT22;1652;51.318;6.202;2023-03-01T14:13:48;6.20;99.90
3281;DHT22;1652;51.318;6.202;2023-03-01T14:19:26;6.20;99.90
3281;DHT22;1652;51.318;6.202;2023-03-01T14:22:29;6.10;99.90
3281;DHT22;1652;51.318;6.202;2023-03-01T14:25:03;6.10;99.90
3281;DHT22;1652;51.318;6.202;2023-03-01T14:27:38;6.10;99.90
3281;DHT22;1652;51.318;6.202;2023-03-01T14:30:13;6.10;99.90
3281;DHT22;1652;51.318;6.202;2023-03-01T14:32:41;6.20;99.90
3281;DHT22;1652;51.318;6.202;2023-03-01T14:35:22;6.20;99.90
3281;DHT22;1652;51.318;6.202;2023-03-01T14:37:50;6.30;99.90
3281;DHT22;1652;51.318;6.202;2023-03-01T14:40:29;6.30;99.90
3281;DHT22;1652;51.318;6.202;2023-03-01T14:42:59;6.30;99.90
3281;DHT22;1652;51.318;6.202;2023-03-01T14:45:29;6.30;99.90
3281;DHT22;1652;51.318;6.202;2023-03-01T14:48:00;6.30;99.90
3281;DHT22;1652;51.318;6.202;2023-03-01T14:50:31;6.30;99.90
3281;DHT22;1652;51.318;6.202;2023-03-01T14:53:03;6.30;99.90
3281;DHT22;1652;51.318;6.202;2023-03-01T14:55:34;6.30;99.90
3281;DHT22;1652;51.318;6.202;2023-03-01T14:58:10;6.30;99.90
3281;DHT22;1652;51.318;6.202;2023-03-01T15:00:39;6.40;99.90
3281;DHT22;1652;51.318;6.202;2023-03-01T15:03:14;6.30;99.90
3281;DHT22;1652;51.318;6.202;2023-03-01T15:05:44;6.30;99.90
3281;DHT22;1652;51.318;6.202;2023-03-01T15:08:19;6.30;99.90
3281;DHT22;1652;51.318;6.202;2023-03-01T15:13:28;6.40;99.90
3281;DHT22;1652;51.318;6.202;2023-03-01T15:16:16;6.30;99.90
3281;DHT22;1652;51.318;6.202;2023-03-01T15:18:53;6.40;99.90
3281;DHT22;1652;51.318;6.202;2023-03-01T15:21:29;6.30;99.90
3281;DHT22;1652;51.318;6.202;2023-03-01T15:26:40;6.30;99.90
3281;DHT22;1652;51.318;6.202;2023-03-01T15:29:18;6.30;99.90
3281;DHT22;1652;51.318;6.202;2023-03-01T15:32:03;6.30;99.90
3281;DHT22;1652;51.318;6.202;2023-03-01T15:34:32;6.40;99.90
3281;DHT22;1652;51.318;6.202;2023-03-01T15:37:01;6.40;99.90
3281;DHT22;1652;51.318;6.202;2023-03-01T15:39:53;6.40;99.90
3281;DHT22;1652;51.318;6.202;2023-03-01T15:45:21;6.30;99.90
3281;DHT22;1652;51.318;6.202;2023-03-01T15:47:52;6.30;99.90
3281;DHT22;1652;51.318;6.202;2023-03-01T15:52:51;6.30;99.90
3281;DHT22;1652;51.318;6.202;2023-03-01T15:55:23;6.30;99.90
3281;DHT22;1652;51.318;6.202;2023-03-01T15:58:17;6.20;99.90
3281;DHT22;1652;51.318;6.202;2023-03-01T16:00:46;6.30;99.90
3281;DHT22;1652;51.318;6.202;2023-03-01T16:03:27;6.30;99.90
3281;DHT22;1652;51.318;6.202;2023-03-01T16:05:54;6.30;99.90
3281;DHT22;1652;51.318;6.202;2023-03-01T16:08:21;6.30;99.90
3281;DHT22;1652;51.318;6.202;2023-03-01T16:10:48;6.20;99.90
3281;DHT22;1652;51.318;6.202;2023-03-01T16:13:17;6.20;99.90
3281;DHT22;1652;51.318;6.202;2023-03-01T16:15:44;6.20;99.90
3281;DHT22;1652;51.318;6.202;2023-03-01T16:18:11;6.10;99.90
3281;DHT22;1652;51.318;6.202;2023-03-01T16:20:39;6.10;99.90
3281;DHT22;1652;51.318;6.202;2023-03-01T16:23:08;6.10;99.90
3281;DHT22;1652;51.318;6.202;2023-03-01T16:25:35;6.00;99.90
3281;DHT22;1652;51.318;6.202;2023-03-01T16:28:02;6.00;99.90
3281;DHT22;1652;51.318;6.202;2023-03-01T16:30:37;6.00;99.90
3281;DHT22;1652;51.318;6.202;2023-03-01T16:33:04;6.00;99.90
3281;DHT22;1652;51.318;6.202;2023-03-01T16:35:49;6.00;99.90
3281;DHT22;1652;51.318;6.202;2023-03-01T16:38:16;5.90;99.90
3281;DHT22;1652;51.318;6.202;2023-03-01T16:40:48;5.80;99.90
3281;DHT22;1652;51.318;6.202;2023-03-01T16:43:15;5.80;99.90
3281;DHT22;1652;51.318;6.202;2023-03-01T16:45:42;5.80;99.90
3281;DHT22;1652;51.318;6.202;2023-03-01T16:48:11;5.70;99.90
3281;DHT22;1652;51.318;6.202;2023-03-01T16:50:38;5.60;99.90
3281;DHT22;1652;51.318;6.202;2023-03-01T16:53:05;5.50;99.90
3281;DHT22;1652;51.318;6.202;2023-03-01T16:55:32;5.50;99.90
3281;DHT22;1652;51.318;6.202;2023-03-01T16:58:00;5.50;99.90
3281;DHT22;1652;51.318;6.202;2023-03-01T17:00:30;5.40;99.90
3281;DHT22;1652;51.318;6.202;2023-03-01T17:03:00;5.30;99.90
3281;DHT22;1652;51.318;6.202;2023-03-01T17:05:27;5.30;99.90
3281;DHT22;1652;51.318;6.202;2023-03-01T17:07:54;5.10;99.90
3281;DHT22;1652;51.318;6.202;2023-03-01T17:10:22;5.10;99.90
3281;DHT22;1652;51.318;6.202;2023-03-01T17:12:49;5.10;99.90
3281;DHT22;1652;51.318;6.202;2023-03-01T17:15:16;5.00;99.90
3281;DHT22;1652;51.318;6.202;2023-03-01T17:17:43;4.90;99.90
3281;DHT22;1652;51.318;6.202;2023-03-01T17:20:10;4.80;99.90
3281;DHT22;1652;51.318;6.202;2023-03-01T17:22:37;4.80;99.90
3281;DHT22;1652;51.318;6.202;2023-03-01T17:25:08;4.80;99.90
3281;DHT22;1652;51.318;6.202;2023-03-01T17:27:37;4.80;99.90
3281;DHT22;1652;51.318;6.202;2023-03-01T17:30:08;4.70;99.90
3281;DHT22;1652;51.318;6.202;2023-03-01T17:32:41;4.70;99.90
3281;DHT22;1652;51.318;6.202;2023-03-01T17:35:08;4.60;99.90
3281;DHT22;1652;51.318;6.202;2023-03-01T17:37:38;4.50;99.90
3281;DHT22;1652;51.318;6.202;2023-03-01T17:40:06;4.40;99.90
3281;DHT22;1652;51.318;6.202;2023-03-01T17:42:33;4.40;99.90
3281;DHT22;1652;51.318;6.202;2023-03-01T17:44:59;4.40;99.90
3281;DHT22;1652;51.318;6.202;2023-03-01T17:47:26;4.40;99.90
3281;DHT22;1652;51.318;6.202;2023-03-01T17:49:53;4.30;99.90
3281;DHT22;1652;51.318;6.202;2023-03-01T17:52:20;4.30;99.90
3281;DHT22;1652;51.318;6.202;2023-03-01T17:54:49;4.20;99.90
3281;DHT22;1652;51.318;6.202;2023-03-01T17:57:16;4.20;99.90
3281;DHT22;1652;51.318;6.202;2023-03-01T17:59:42;4.20;99.90
3281;DHT22;1652;51.318;6.202;2023-03-01T18:02:11;4.20;99.90
3281;DHT22;1652;51.318;6.202;2023-03-01T18:04:38;4.20;99.90
3281;DHT22;1652;51.318;6.202;2023-03-01T18:07:05;4.10;99.90
3281;DHT22;1652;51.318;6.202;2023-03-01T18:09:32;4.10;99.90
3281;DHT22;1652;51.318;6.202;2023-03-01T18:11:58;4.00;99.90
3281;DHT22;1652;51.318;6.202;2023-03-01T18:14:25;4.00;99.90
3281;DHT22;1652;51.318;6.202;2023-03-01T18:16:55;4.00;99.90
3281;DHT22;1652;51.318;6.202;2023-03-01T18:19:22;4.00;99.90
3281;DHT22;1652;51.318;6.202;2023-03-01T18:21:49;3.90;99.90
3281;DHT22;1652;51.318;6.202;2023-03-01T18:24:15;3.90;99.90
3281;DHT22;1652;51.318;6.202;2023-03-01T18:26:42;3.80;99.90
3281;DHT22;1652;51.318;6.202;2023-03-01T18:29:09;3.80;99.90
3281;DHT22;1652;51.318;6.202;2023-03-01T18:31:36;3.70;99.90
3281;DHT22;1652;51.318;6.202;2023-03-01T18:34:03;3.70;99.90